createdAt,value
2018-12-14T00:02:54.186Z,99022.79
2018-12-14T00:05:21.360Z,99016.77
2018-12-14T00:07:48.433Z,99015.50
2018-12-14T00:10:15.630Z,99020.45
2018-12-14T00:12:42.752Z,99012.01
2018-12-14T00:15:09.885Z,99012.00
2018-12-14T00:17:37.624Z,99011.87
2018-12-14T00:20:06.959Z,99013.66
2018-12-14T00:22:34.061Z,99013.22
2018-12-14T00:25:01.191Z,99019.03
2018-12-14T00:27:28.559Z,99018.48
2018-12-14T00:29:56.089Z,99014.22
2018-12-14T00:32:23.359Z,99025.45
2018-12-14T00:34:50.490Z,99024.42
2018-12-14T00:37:17.672Z,99025.31
2018-12-14T00:39:44.769Z,99026.55
2018-12-14T00:42:11.894Z,99030.55
2018-12-14T00:44:39.023Z,99024.84
2018-12-14T00:47:07.389Z,99025.86
2018-12-14T00:49:34.814Z,99027.67
2018-12-14T00:52:01.912Z,99028.52
2018-12-14T00:54:29.059Z,99036.58
2018-12-14T00:56:56.115Z,99031.02
2018-12-14T00:59:23.191Z,99030.19
2018-12-14T01:01:50.292Z,99029.20
2018-12-14T01:04:17.416Z,99028.08
2018-12-14T01:06:44.497Z,99029.01
2018-12-14T01:09:11.601Z,99033.38
2018-12-14T01:11:38.748Z,99034.22
2018-12-14T01:14:06.027Z,99045.05
2018-12-14T01:16:33.134Z,99031.98
2018-12-14T01:19:00.240Z,99031.73
2018-12-14T01:21:27.340Z,99034.90
2018-12-14T01:23:54.495Z,99036.52
2018-12-14T01:26:21.579Z,99038.56
2018-12-14T01:28:48.887Z,99041.48
2018-12-14T01:31:16.010Z,99040.40
2018-12-14T01:33:43.260Z,99040.30
2018-12-14T01:36:10.395Z,99040.09
2018-12-14T01:38:37.560Z,99051.16
2018-12-14T01:41:04.635Z,99047.63
2018-12-14T01:43:31.697Z,99047.28
2018-12-14T01:45:58.751Z,99049.61
2018-12-14T01:48:25.821Z,99039.84
2018-12-14T01:50:53.579Z,99041.85
2018-12-14T01:53:20.697Z,99044.06
2018-12-14T01:55:47.786Z,99042.23
2018-12-14T01:58:14.859Z,99038.63
2018-12-14T02:00:41.974Z,99038.53
2018-12-14T02:03:09.063Z,99030.47
2018-12-14T02:05:36.140Z,99029.66
2018-12-14T02:08:03.228Z,99035.05
2018-12-14T02:10:30.340Z,99037.22
2018-12-14T02:12:58.051Z,99031.58
2018-12-14T02:15:25.108Z,99036.95
2018-12-14T02:17:54.094Z,99034.25
2018-12-14T02:20:21.156Z,99030.42
2018-12-14T02:22:48.237Z,99039.38
2018-12-14T02:25:15.328Z,99032.48
2018-12-14T02:27:42.538Z,99029.78
2018-12-14T02:30:21.495Z,99028.36
2018-12-14T02:32:48.731Z,99030.34
2018-12-14T02:35:15.805Z,99032.77
2018-12-14T02:37:43.385Z,99030.39
2018-12-14T02:40:10.502Z,99037.46
2018-12-14T02:42:37.604Z,99035.30
2018-12-14T02:45:05.036Z,99032.81
2018-12-14T02:47:33.351Z,99028.55
2018-12-14T02:50:00.489Z,99039.77
2018-12-14T02:52:27.764Z,99041.11
2018-12-14T02:54:55.078Z,99049.42
2018-12-14T02:57:22.190Z,99050.25
2018-12-14T02:59:49.807Z,99045.14
2018-12-14T03:02:16.995Z,99043.56
2018-12-14T03:04:44.075Z,99043.50
2018-12-14T03:07:11.149Z,99048.25
2018-12-14T03:09:38.249Z,99038.72
2018-12-14T03:12:06.280Z,99038.28
2018-12-14T03:14:33.449Z,99037.20
2018-12-14T03:17:00.648Z,99038.63
2018-12-14T03:19:27.737Z,99038.66
2018-12-14T03:21:54.842Z,99036.23
2018-12-14T03:24:22.061Z,99031.13
2018-12-14T03:26:49.217Z,99031.13
2018-12-14T03:29:16.290Z,99031.98
2018-12-14T03:31:44.256Z,99025.81
2018-12-14T03:34:11.303Z,99032.25
2018-12-14T03:36:38.851Z,99029.34
2018-12-14T03:39:05.995Z,99025.96
2018-12-14T03:41:33.147Z,99025.50
2018-12-14T03:44:00.229Z,99021.94
2018-12-14T03:46:27.347Z,99027.62
2018-12-14T03:48:55.267Z,99017.19
2018-12-14T03:51:27.681Z,99029.09
2018-12-14T03:53:54.811Z,99022.55
2018-12-14T03:56:21.940Z,99031.30
2018-12-14T03:58:49.079Z,99025.13
2018-12-14T04:01:16.189Z,99025.09
2018-12-14T04:03:43.392Z,99026.61
2018-12-14T04:06:11.362Z,99029.66
2018-12-14T04:08:39.004Z,99027.11
2018-12-14T04:11:06.112Z,99021.90
2018-12-14T04:13:33.323Z,99017.95
2018-12-14T04:16:00.515Z,99021.89
2018-12-14T04:18:27.937Z,99020.67
2018-12-14T04:20:55.065Z,99023.63
2018-12-14T04:23:22.180Z,99025.37
2018-12-14T04:25:49.264Z,99022.27
2018-12-14T04:28:16.374Z,99025.47
2018-12-14T04:30:43.514Z,99028.94
2018-12-14T04:33:10.723Z,99025.86
2018-12-14T04:35:37.929Z,99029.22
2018-12-14T04:38:05.163Z,99020.99
2018-12-14T04:40:32.283Z,99020.55
2018-12-14T04:42:59.400Z,99020.69
2018-12-14T04:45:26.552Z,99025.31
2018-12-14T04:47:53.664Z,99023.12
2018-12-14T04:50:20.813Z,99017.48
2018-12-14T04:52:47.933Z,99020.55
2018-12-14T04:55:15.051Z,99028.66
2018-12-14T04:57:42.176Z,99026.13
2018-12-14T05:00:09.348Z,99008.27
2018-12-14T05:02:36.541Z,99034.73
2018-12-14T05:05:03.612Z,98996.16
2018-12-14T05:07:30.710Z,99039.01
2018-12-14T05:09:57.824Z,99036.58
2018-12-14T05:12:24.931Z,99033.29
2018-12-14T05:14:52.373Z,99044.14
2018-12-14T05:17:19.768Z,99039.81
2018-12-14T05:19:46.844Z,99043.95
2018-12-14T05:22:13.944Z,99048.48
2018-12-14T05:24:41.082Z,99044.75
2018-12-14T05:27:08.638Z,99045.07
2018-12-14T05:29:36.523Z,99056.31
2018-12-14T05:32:03.608Z,99054.47
2018-12-14T05:34:30.894Z,99053.03
2018-12-14T05:36:58.884Z,99054.47
2018-12-14T05:39:25.966Z,99057.81
2018-12-14T05:41:53.020Z,99047.01
2018-12-14T05:44:20.210Z,99047.09
2018-12-14T05:46:48.058Z,99051.52
2018-12-14T05:49:15.105Z,99052.01
2018-12-14T05:51:42.247Z,99054.66
2018-12-14T05:54:09.476Z,99061.54
2018-12-14T05:56:36.713Z,99059.56
2018-12-14T05:59:03.796Z,99052.77
2018-12-14T06:01:30.906Z,99054.48
2018-12-14T06:03:58.584Z,99060.69
2018-12-14T06:06:25.647Z,99061.31
2018-12-14T06:08:52.801Z,99061.23
2018-12-14T06:11:19.964Z,99066.13
2018-12-14T06:13:47.093Z,99059.02
2018-12-14T06:16:20.884Z,99072.08
2018-12-14T06:18:48.059Z,99074.36
2018-12-14T06:21:15.142Z,99073.69
2018-12-14T06:23:42.291Z,99071.00
2018-12-14T06:26:09.461Z,99073.39
2018-12-14T06:28:36.658Z,99073.11
2018-12-14T06:31:03.774Z,99079.27
2018-12-14T06:33:30.864Z,99080.27
2018-12-14T06:35:58.075Z,99088.59
2018-12-14T06:38:25.199Z,99080.50
2018-12-14T06:40:52.276Z,99081.56
2018-12-14T06:43:19.410Z,99085.67
2018-12-14T06:45:46.474Z,99088.46
2018-12-14T06:48:13.582Z,99087.33
2018-12-14T06:50:40.671Z,99095.03
2018-12-14T06:53:08.334Z,99097.50
2018-12-14T06:55:35.386Z,99098.27
2018-12-14T06:58:02.638Z,99098.58
2018-12-14T07:00:29.975Z,99105.38
2018-12-14T07:02:57.347Z,99102.81
2018-12-14T07:05:24.476Z,99098.98
2018-12-14T07:07:51.570Z,99103.36
2018-12-14T07:10:18.714Z,99112.62
2018-12-14T07:12:45.847Z,99112.27
2018-12-14T07:15:13.088Z,99113.80
2018-12-14T07:17:40.244Z,99119.95
2018-12-14T07:20:07.300Z,99122.23
2018-12-14T07:22:34.603Z,99119.63
2018-12-14T07:25:02.689Z,99118.43
2018-12-14T07:27:29.800Z,99123.48
2018-12-14T07:29:57.221Z,99128.48
2018-12-14T07:32:24.309Z,99065.97
2018-12-14T07:34:51.554Z,99133.60
2018-12-14T07:37:19.472Z,99135.86
2018-12-14T07:39:46.695Z,99137.72
2018-12-14T07:42:13.873Z,99144.01
2018-12-14T07:44:41.150Z,99147.55
2018-12-14T07:47:11.673Z,99145.46
2018-12-14T07:49:38.018Z,99155.69
2018-12-14T07:52:05.088Z,99158.39
2018-12-14T07:54:32.234Z,99162.86
2018-12-14T07:56:59.293Z,99167.89
2018-12-14T07:59:26.471Z,99175.44
2018-12-14T08:01:54.505Z,99173.20
2018-12-14T08:04:21.819Z,99171.06
2018-12-14T08:06:49.029Z,99178.39
2018-12-14T08:09:17.141Z,99188.11
2018-12-14T08:11:44.356Z,99181.66
2018-12-14T08:14:11.670Z,99184.64
2018-12-14T08:16:38.859Z,99188.67
2018-12-14T08:19:06.485Z,99189.81
2018-12-14T08:21:33.668Z,99190.86
2018-12-14T08:24:02.103Z,99194.68
2018-12-14T08:26:29.815Z,99193.83
2018-12-14T08:28:56.949Z,99199.42
2018-12-14T08:31:24.032Z,99206.51
2018-12-14T08:33:51.800Z,99205.78
2018-12-14T08:36:18.823Z,99207.92
2018-12-14T08:38:46.096Z,99209.45
2018-12-14T08:41:13.224Z,99132.39
2018-12-14T08:43:41.644Z,99211.88
2018-12-14T08:46:09.218Z,99210.95
2018-12-14T08:48:37.023Z,99210.83
2018-12-14T08:51:04.284Z,99217.63
2018-12-14T08:53:31.787Z,99221.79
2018-12-14T08:55:58.963Z,99228.66
2018-12-14T08:58:26.039Z,99226.59
2018-12-14T09:00:53.776Z,99230.41
2018-12-14T09:03:21.637Z,99196.58
2018-12-14T09:05:48.788Z,99235.35
2018-12-14T09:08:15.870Z,99234.00
2018-12-14T09:10:42.962Z,99240.98
2018-12-14T09:13:10.063Z,99249.48
2018-12-14T09:15:37.159Z,99252.16
2018-12-14T09:18:04.352Z,99257.66
2018-12-14T09:20:31.479Z,99263.14
2018-12-14T09:22:58.809Z,99263.00
2018-12-14T09:25:25.923Z,99269.12
2018-12-14T09:27:53.009Z,99268.34
2018-12-14T09:30:20.137Z,99265.34
2018-12-14T09:32:47.319Z,99276.37
2018-12-14T09:35:14.472Z,99274.42
2018-12-14T09:37:41.670Z,99276.56
2018-12-14T09:40:09.009Z,99268.14
2018-12-14T09:42:36.118Z,99271.10
2018-12-14T09:45:03.281Z,99272.34
2018-12-14T09:47:31.039Z,99274.61
2018-12-14T09:49:58.234Z,99280.89
2018-12-14T09:52:25.406Z,99275.80
2018-12-14T09:54:52.545Z,99276.60
2018-12-14T09:57:21.272Z,99280.18
2018-12-14T09:59:49.137Z,99279.84
2018-12-14T10:02:16.190Z,99281.55
2018-12-14T10:04:43.234Z,99282.54
2018-12-14T10:07:10.450Z,99282.41
2018-12-14T10:09:37.665Z,99281.42
2018-12-14T10:12:04.845Z,99291.25
2018-12-14T10:14:31.959Z,99289.00
2018-12-14T10:16:59.070Z,99285.80
2018-12-14T10:19:26.199Z,99286.67
2018-12-14T10:21:53.391Z,99282.16
2018-12-14T10:24:20.537Z,99282.59
2018-12-14T10:26:47.679Z,99281.58
2018-12-14T10:29:14.796Z,99280.36
2018-12-14T10:31:41.930Z,99288.45
2018-12-14T10:34:09.087Z,99278.44
2018-12-14T10:36:36.338Z,99276.11
2018-12-14T10:39:05.017Z,99250.52
2018-12-14T10:41:33.026Z,99271.61
2018-12-14T10:44:00.284Z,99263.66
2018-12-14T10:46:27.382Z,99256.52
2018-12-14T10:48:54.431Z,99265.81
2018-12-14T10:51:21.535Z,99256.20
2018-12-14T10:53:48.652Z,99263.80
2018-12-14T10:56:15.752Z,99264.60
2018-12-14T10:58:42.901Z,99254.22
2018-12-14T11:01:16.331Z,99255.80
2018-12-14T11:03:43.749Z,99255.73
2018-12-14T11:06:11.292Z,99254.25
2018-12-14T11:08:38.801Z,99252.94
2018-12-14T11:11:06.917Z,99252.34
2018-12-14T11:13:35.448Z,99256.69
2018-12-14T11:16:02.663Z,99252.99
2018-12-14T11:18:29.893Z,99250.62
2018-12-14T11:20:57.148Z,99249.05
2018-12-14T11:23:24.312Z,99246.48
2018-12-14T11:25:51.499Z,99254.52
2018-12-14T11:28:18.621Z,99256.86
2018-12-14T11:30:45.842Z,99250.06
2018-12-14T11:33:12.981Z,99248.58
2018-12-14T11:35:40.117Z,99245.38
2018-12-14T11:38:07.257Z,99253.28
2018-12-14T11:40:34.557Z,99246.81
2018-12-14T11:43:01.879Z,99253.75
2018-12-14T11:45:29.202Z,99249.41
2018-12-14T11:47:57.328Z,99250.09
2018-12-14T11:50:24.465Z,99246.75
2018-12-14T11:52:51.688Z,99243.06
2018-12-14T11:55:18.893Z,99244.97
2018-12-14T11:57:46.047Z,99240.53
2018-12-14T12:00:13.898Z,99239.77
2018-12-14T12:02:43.305Z,99231.27
2018-12-14T12:05:10.376Z,99231.03
2018-12-14T12:07:39.589Z,99230.53
2018-12-14T12:10:09.775Z,99235.38
2018-12-14T12:12:37.491Z,99238.77
2018-12-14T12:15:04.765Z,99233.39
2018-12-14T12:17:31.973Z,99241.25
2018-12-14T12:19:59.099Z,99239.77
2018-12-14T12:22:26.205Z,99237.09
2018-12-14T12:24:53.361Z,99244.64
2018-12-14T12:27:20.456Z,99243.17
2018-12-14T12:29:47.564Z,99236.70
2018-12-14T12:32:14.644Z,99244.08
2018-12-14T12:34:41.881Z,99246.31
2018-12-14T12:37:08.996Z,99249.17
2018-12-14T12:39:36.120Z,99244.97
2018-12-14T12:42:04.063Z,99249.92
2018-12-14T12:44:33.639Z,99254.25
2018-12-14T12:47:01.117Z,99244.13
2018-12-14T12:49:28.294Z,99246.65
2018-12-14T12:51:55.490Z,99237.42
2018-12-14T12:54:22.620Z,99250.61
2018-12-14T12:56:51.382Z,99242.23
2018-12-14T12:59:18.497Z,99249.92
2018-12-14T13:01:45.685Z,99242.98
2018-12-14T13:04:13.696Z,99238.86
2018-12-14T13:06:41.298Z,99247.78
2018-12-14T13:09:08.641Z,99216.42
2018-12-14T13:11:35.843Z,99246.20
2018-12-14T13:14:02.934Z,99249.64
2018-12-14T13:16:30.043Z,99255.48
2018-12-14T13:18:57.169Z,99253.45
2018-12-14T13:21:24.320Z,99257.42
2018-12-14T13:23:51.437Z,99251.92
2018-12-14T13:26:18.555Z,99263.72
2018-12-14T13:28:45.722Z,99255.93
2018-12-14T13:31:12.899Z,99254.39
2018-12-14T13:33:40.267Z,99264.25
2018-12-14T13:36:07.455Z,99272.84
2018-12-14T13:38:34.687Z,99274.45
2018-12-14T13:41:01.868Z,99279.15
2018-12-14T13:43:29.140Z,99285.90
2018-12-14T13:45:56.497Z,99284.09
2018-12-14T13:48:23.615Z,99289.04
2018-12-14T13:50:50.804Z,99099.27
2018-12-14T13:53:18.144Z,99296.44
2018-12-14T13:55:45.280Z,99295.38
2018-12-14T13:58:12.421Z,99220.29
2018-12-14T14:00:39.907Z,99301.10
2018-12-14T14:03:07.422Z,99314.50
2018-12-14T14:05:34.726Z,99316.09
2018-12-14T14:08:01.823Z,99324.34
2018-12-14T14:10:29.797Z,99324.94
2018-12-14T14:12:56.934Z,99332.06
2018-12-14T14:15:24.191Z,99334.88
2018-12-14T14:17:51.947Z,99336.91
2018-12-14T14:20:19.076Z,99339.37
2018-12-14T14:22:46.280Z,99335.95
2018-12-14T14:25:17.411Z,99335.99
2018-12-14T14:27:42.699Z,99340.38
2018-12-14T14:30:10.614Z,99347.56
2018-12-14T14:32:37.792Z,99348.31
2018-12-14T14:35:05.919Z,99354.09
2018-12-14T14:37:33.148Z,99357.45
2018-12-14T14:40:00.451Z,99354.53
2018-12-14T14:42:27.608Z,99358.16
2018-12-14T14:44:59.713Z,99354.45
2018-12-14T14:47:25.376Z,99356.70
2018-12-14T14:49:52.525Z,99360.99
2018-12-14T14:52:19.773Z,99358.66
2018-12-14T14:54:47.133Z,99361.84
2018-12-14T14:57:15.467Z,99367.31
2018-12-14T14:59:42.622Z,99366.11
2018-12-14T15:02:10.399Z,99356.44
2018-12-14T15:04:37.696Z,99364.43
2018-12-14T15:07:04.911Z,99361.54
2018-12-14T15:09:32.093Z,99367.16
2018-12-14T15:11:59.308Z,99362.03
2018-12-14T15:14:27.426Z,99364.03
2018-12-14T15:16:54.830Z,99374.06
2018-12-14T15:19:21.973Z,99372.25
2018-12-14T15:21:49.961Z,99376.69
2018-12-14T15:24:17.103Z,99379.50
2018-12-14T15:26:45.156Z,99383.91
2018-12-14T15:29:12.273Z,99388.63
2018-12-14T15:31:40.377Z,99388.75
2018-12-14T15:34:14.165Z,99395.77
2018-12-14T15:36:36.898Z,99395.34
2018-12-14T15:39:04.489Z,99395.50
2018-12-14T15:41:31.609Z,99400.44
2018-12-14T15:43:58.749Z,99401.89
2018-12-14T15:46:26.015Z,99403.70
2018-12-14T15:48:53.412Z,99415.05
2018-12-14T15:51:22.153Z,99415.91
2018-12-14T15:53:49.378Z,99414.23
2018-12-14T15:56:16.484Z,99420.78
2018-12-14T15:58:43.782Z,99416.78
2018-12-14T16:01:10.896Z,99419.02
2018-12-14T16:03:38.044Z,99416.79
2018-12-14T16:06:05.347Z,99420.59
2018-12-14T16:08:33.436Z,99422.50
2018-12-14T16:11:00.553Z,99423.02
2018-12-14T16:13:27.736Z,99429.71
2018-12-14T16:15:54.947Z,99427.31
2018-12-14T16:18:22.235Z,99426.38
2018-12-14T16:20:49.320Z,99426.26
2018-12-14T16:23:16.474Z,99434.31
2018-12-14T16:25:43.778Z,99431.12
2018-12-14T16:28:11.104Z,99430.63
2018-12-14T16:30:38.281Z,99431.12
2018-12-14T16:33:05.686Z,99432.90
2018-12-14T16:35:32.861Z,99437.64
2018-12-14T16:37:59.945Z,99433.45
2018-12-14T16:40:27.191Z,99435.55
2018-12-14T16:42:54.277Z,99443.58
2018-12-14T16:45:26.476Z,99447.59
2018-12-14T16:47:51.587Z,99444.55
2018-12-14T16:50:18.801Z,99446.26
2018-12-14T16:52:45.955Z,99449.97
2018-12-14T16:55:13.163Z,99458.73
2018-12-14T16:57:40.307Z,99463.23
2018-12-14T17:00:09.882Z,99470.17
2018-12-14T17:02:36.976Z,99463.48
2018-12-14T17:05:04.072Z,99462.06
2018-12-14T17:07:31.256Z,99457.73
2018-12-14T17:09:58.428Z,99473.09
2018-12-14T17:12:25.641Z,99476.59
2018-12-14T17:14:52.771Z,99480.62
2018-12-14T17:17:20.552Z,99485.24
2018-12-14T17:19:47.793Z,99482.63
2018-12-14T17:22:15.073Z,99480.02
2018-12-14T17:24:42.471Z,99474.09
2018-12-14T17:27:09.872Z,99476.20
2018-12-14T17:29:37.000Z,99483.64
2018-12-14T17:32:04.302Z,99484.75
2018-12-14T17:34:31.491Z,99488.23
2018-12-14T17:36:58.739Z,99489.27
2018-12-14T17:39:25.964Z,99496.48
2018-12-14T17:41:54.234Z,99505.91
2018-12-14T17:46:59.743Z,99515.97
2018-12-14T17:49:26.933Z,99522.70
2018-12-14T17:51:54.166Z,99525.59
2018-12-14T17:54:21.653Z,99520.19
2018-12-14T17:56:48.865Z,99522.38
2018-12-14T17:59:15.981Z,99521.89
2018-12-14T18:01:43.278Z,99525.00
2018-12-14T18:04:10.448Z,99526.52
2018-12-14T18:06:37.552Z,99526.41
2018-12-14T18:09:05.216Z,99535.44
2018-12-14T18:11:32.355Z,99538.66
2018-12-14T18:13:59.555Z,99540.56
2018-12-14T18:16:27.217Z,99538.38
2018-12-14T18:18:54.469Z,99536.85
2018-12-14T18:21:21.610Z,99543.98
2018-12-14T18:23:48.896Z,99545.89
2018-12-14T18:26:16.085Z,99546.91
2018-12-14T18:28:43.348Z,99554.14
2018-12-14T18:31:10.491Z,99556.75
2018-12-14T18:33:37.680Z,99555.73
2018-12-14T18:36:05.673Z,99555.03
2018-12-14T18:38:32.986Z,99559.55
2018-12-14T18:41:00.157Z,99564.48
2018-12-14T18:43:27.311Z,99572.42
2018-12-14T18:45:54.618Z,99579.73
2018-12-14T18:48:22.657Z,99572.22
2018-12-14T18:50:50.003Z,99573.63
2018-12-14T18:53:17.532Z,99575.11
2018-12-14T18:55:45.403Z,99575.63
2018-12-14T18:58:13.172Z,99578.32
2018-12-14T19:00:40.329Z,99578.85
2018-12-14T19:03:07.489Z,99584.35
2018-12-14T19:05:35.653Z,99581.36
2018-12-14T19:08:02.753Z,99588.87
2018-12-14T19:10:29.956Z,99587.39
2018-12-14T19:12:57.160Z,99590.08
2018-12-14T19:15:24.519Z,99586.08
2018-12-14T19:17:51.682Z,99596.22
2018-12-14T19:20:19.547Z,99594.91
2018-12-14T19:22:46.816Z,99592.68
2018-12-14T19:25:14.107Z,99596.28
2018-12-14T19:27:41.308Z,99591.28
2018-12-14T19:30:08.422Z,99596.20
2018-12-14T19:32:35.573Z,99600.22
2018-12-14T19:35:03.165Z,99592.59
2018-12-14T19:37:30.282Z,99587.88
2018-12-14T19:39:57.651Z,99590.00
2018-12-14T19:42:24.889Z,99591.59
2018-12-14T19:44:52.002Z,99598.55
2018-12-14T19:47:19.908Z,99590.50
2018-12-14T19:49:47.191Z,99595.59
2018-12-14T19:52:15.138Z,99590.56
2018-12-14T19:54:42.421Z,99595.47
2018-12-14T19:57:09.745Z,99595.35
2018-12-14T19:59:36.881Z,99593.63
2018-12-14T20:02:04.029Z,99596.83
2018-12-14T20:04:32.052Z,99602.27
2018-12-14T20:06:59.933Z,99601.37
2018-12-14T20:09:28.089Z,99608.23
2018-12-14T20:11:55.357Z,99607.08
2018-12-14T20:14:22.684Z,99610.69
2018-12-14T20:16:49.873Z,99614.53
2018-12-14T20:19:17.156Z,99614.02
2018-12-14T20:21:44.277Z,99610.23
2018-12-14T20:24:11.401Z,99606.81
2018-12-14T20:26:38.577Z,99618.81
2018-12-14T20:29:06.144Z,99611.70
2018-12-14T20:31:33.227Z,99609.09
2018-12-14T20:34:00.407Z,99613.02
2018-12-14T20:36:27.499Z,99608.84
2018-12-14T20:38:54.705Z,99612.25
2018-12-14T20:41:21.778Z,99614.34
2018-12-14T20:43:48.943Z,99611.84
2018-12-14T20:46:19.365Z,99614.36
2018-12-14T20:48:45.999Z,99605.14
2018-12-14T20:51:14.260Z,99603.83
2018-12-14T20:53:41.826Z,99608.05
2018-12-14T20:56:08.923Z,99601.41
2018-12-14T20:58:36.884Z,99607.22
2018-12-14T21:01:04.812Z,99604.92
2018-12-14T21:03:31.984Z,99603.02
2018-12-14T21:05:59.305Z,99608.45
2018-12-14T21:08:27.189Z,99618.59
2018-12-14T21:10:54.484Z,99613.75
2018-12-14T21:13:21.581Z,99614.57
2018-12-14T21:15:49.175Z,99613.95
2018-12-14T21:18:16.360Z,99618.46
2018-12-14T21:20:43.472Z,99617.95
2018-12-14T21:23:11.040Z,99619.45
2018-12-14T21:25:38.184Z,99616.45
2018-12-14T21:28:05.840Z,99619.48
2018-12-14T21:30:33.299Z,99615.89
2018-12-14T21:33:00.487Z,99612.44
2018-12-14T21:35:27.679Z,99610.23
2018-12-14T21:37:55.089Z,99607.81
2018-12-14T21:40:22.210Z,99602.41
2018-12-14T21:42:49.464Z,99601.31
2018-12-14T21:45:16.610Z,99601.73
2018-12-14T21:47:43.797Z,99596.67
2018-12-14T21:50:10.979Z,99590.13
2018-12-14T21:52:38.352Z,99588.14
2018-12-14T21:55:06.038Z,99586.83
2018-12-14T21:57:33.277Z,99591.06
2018-12-14T22:00:00.427Z,99588.08
2018-12-14T22:02:28.165Z,99584.43
2018-12-14T22:04:55.600Z,99587.25
2018-12-14T22:07:22.864Z,99587.52
2018-12-14T22:09:50.091Z,99588.73
2018-12-14T22:12:17.271Z,99584.23
2018-12-14T22:14:44.436Z,99595.53
2018-12-14T22:17:11.553Z,99588.09
2018-12-14T22:19:38.708Z,99588.70
2018-12-14T22:22:05.812Z,99586.28
2018-12-14T22:24:32.944Z,99586.79
2018-12-14T22:27:01.482Z,99582.14
2018-12-14T22:29:29.940Z,99586.25
2018-12-14T22:31:58.500Z,99586.84
2018-12-14T22:34:26.159Z,99584.16
2018-12-14T22:36:54.796Z,99592.27
2018-12-14T22:39:23.702Z,99592.70
2018-12-14T22:41:50.993Z,99600.05
2018-12-14T22:44:21.389Z,99593.84
2018-12-14T22:46:52.287Z,99586.11
2018-12-14T22:49:19.399Z,99587.72
2018-12-14T22:51:46.778Z,99583.69
2018-12-14T22:54:14.158Z,99577.36
2018-12-14T22:56:41.328Z,99584.56
2018-12-14T22:59:08.511Z,99586.19
2018-12-14T23:01:36.432Z,99585.47
2018-12-14T23:04:03.972Z,99592.19
2018-12-14T23:06:31.234Z,99594.11
2018-12-14T23:08:58.385Z,99602.34
2018-12-14T23:11:26.527Z,99596.75
2018-12-14T23:13:53.864Z,99596.58
2018-12-14T23:16:22.177Z,99594.86
2018-12-14T23:18:49.873Z,99594.58
2018-12-14T23:21:16.987Z,99593.73
2018-12-14T23:23:44.264Z,99593.44
2018-12-14T23:26:11.439Z,99595.05
2018-12-14T23:28:38.895Z,99595.63
2018-12-14T23:31:06.217Z,99598.66
2018-12-14T23:33:33.584Z,99590.23
2018-12-14T23:36:01.056Z,99594.11
2018-12-14T23:38:28.187Z,99590.75
2018-12-14T23:40:56.740Z,99586.58
2018-12-14T23:43:23.919Z,99591.16
2018-12-14T23:45:51.736Z,99590.09
2018-12-14T23:48:21.488Z,99588.93
2018-12-14T23:50:49.428Z,99602.05
2018-12-14T23:53:16.584Z,99602.17
2018-12-14T23:55:43.742Z,99607.67
2018-12-14T23:58:10.917Z,99610.26
